createdAt,value
2019-03-13T00:00:49.580Z,4.40
2019-03-13T00:03:18.734Z,4.50
2019-03-13T00:05:47.932Z,4.50
2019-03-13T00:08:17.133Z,4.50
2019-03-13T00:10:46.332Z,4.40
2019-03-13T00:13:15.428Z,4.30
2019-03-13T00:15:44.825Z,4.10
2019-03-13T00:18:13.928Z,3.90
2019-03-13T00:20:43.011Z,3.80
2019-03-13T00:23:12.211Z,3.70
2019-03-13T00:25:40.993Z,3.60
2019-03-13T00:28:09.823Z,3.40
2019-03-13T00:30:39.004Z,3.30
2019-03-13T00:33:08.084Z,3.20
2019-03-13T00:35:37.178Z,3.20
2019-03-13T00:38:05.893Z,3.20
2019-03-13T00:40:34.978Z,3.10
2019-03-13T00:43:03.807Z,3.10
2019-03-13T00:45:33.358Z,3.10
2019-03-13T00:48:02.067Z,3.10
2019-03-13T00:50:33.103Z,3.20
2019-03-13T00:53:02.182Z,3.30
2019-03-13T00:55:30.893Z,3.20
2019-03-13T00:58:00.080Z,3.20
2019-03-13T01:00:46.214Z,3.30
2019-03-13T01:03:16.576Z,3.30
2019-03-13T01:05:49.679Z,3.40
2019-03-13T01:08:18.889Z,3.40
2019-03-13T01:10:47.984Z,3.50
2019-03-13T01:13:16.752Z,3.50
2019-03-13T01:15:45.862Z,3.60
2019-03-13T01:18:14.965Z,3.70
2019-03-13T01:20:43.740Z,3.80
2019-03-13T01:23:12.491Z,3.80
2019-03-13T01:25:41.528Z,3.90
2019-03-13T01:28:10.236Z,4.00
2019-03-13T01:30:49.761Z,4.10
2019-03-13T01:33:19.637Z,4.10
2019-03-13T01:35:53.481Z,4.10
2019-03-13T01:38:22.480Z,4.10
2019-03-13T01:40:51.230Z,4.10
2019-03-13T01:43:20.260Z,4.10
2019-03-13T01:45:49.347Z,4.10
2019-03-13T01:48:18.451Z,4.10
2019-03-13T01:50:47.552Z,4.20
2019-03-13T01:53:16.342Z,4.20
2019-03-13T01:55:45.424Z,4.20
2019-03-13T01:58:14.130Z,4.20
2019-03-13T02:00:43.210Z,4.20
2019-03-13T02:03:12.717Z,4.20
2019-03-13T02:05:41.419Z,4.30
2019-03-13T02:08:10.203Z,4.30
2019-03-13T02:10:39.283Z,4.30
2019-03-13T02:13:08.062Z,4.30
2019-03-13T02:15:37.071Z,4.40
2019-03-13T02:18:06.477Z,4.40
2019-03-13T02:20:35.571Z,4.40
2019-03-13T02:23:04.352Z,4.40
2019-03-13T02:25:33.167Z,4.40
2019-03-13T02:28:02.240Z,4.50
2019-03-13T02:30:32.075Z,4.50
2019-03-13T02:33:00.793Z,4.50
2019-03-13T02:35:29.944Z,4.50
2019-03-13T02:37:59.042Z,4.60
2019-03-13T02:40:28.137Z,4.60
2019-03-13T02:42:57.227Z,4.60
2019-03-13T02:45:26.065Z,4.60
2019-03-13T02:47:55.120Z,4.60
2019-03-13T02:50:23.908Z,4.70
2019-03-13T02:52:52.860Z,4.70
2019-03-13T02:55:21.997Z,4.70
2019-03-13T02:57:50.712Z,4.70
2019-03-13T03:00:35.953Z,4.80
2019-03-13T03:03:21.841Z,4.70
2019-03-13T03:05:50.942Z,4.70
2019-03-13T03:08:20.059Z,4.70
2019-03-13T03:10:48.749Z,4.70
2019-03-13T03:13:17.501Z,4.60
2019-03-13T03:15:46.606Z,4.60
2019-03-13T03:18:15.914Z,4.60
2019-03-13T03:20:45.210Z,4.60
2019-03-13T03:23:14.166Z,4.60
2019-03-13T03:25:43.190Z,4.60
2019-03-13T03:28:11.897Z,4.50
2019-03-13T03:30:40.973Z,4.50
2019-03-13T03:33:10.080Z,4.50
2019-03-13T03:35:39.173Z,4.50
2019-03-13T03:38:08.260Z,4.50
2019-03-13T03:40:37.255Z,4.50
2019-03-13T03:43:06.269Z,4.60
2019-03-13T03:45:35.349Z,4.60
2019-03-13T03:48:04.547Z,4.70
2019-03-13T03:50:33.640Z,4.70
2019-03-13T03:53:02.843Z,4.70
2019-03-13T03:55:31.653Z,4.70
2019-03-13T03:58:00.721Z,4.70
2019-03-13T04:00:29.930Z,4.60
2019-03-13T04:02:59.033Z,4.60
2019-03-13T04:05:28.248Z,4.60
2019-03-13T04:07:57.417Z,4.50
2019-03-13T04:10:26.123Z,4.40
2019-03-13T04:12:55.207Z,4.50
2019-03-13T04:15:24.301Z,4.50
2019-03-13T04:17:53.407Z,4.50
2019-03-13T04:20:22.232Z,4.40
2019-03-13T04:22:51.281Z,4.40
2019-03-13T04:25:25.693Z,4.50
2019-03-13T04:27:54.797Z,4.60
2019-03-13T04:30:23.900Z,4.50
2019-03-13T04:32:53.095Z,4.50
2019-03-13T04:35:22.185Z,4.50
2019-03-13T04:37:51.276Z,4.40
2019-03-13T04:40:20.474Z,4.40
2019-03-13T04:42:49.252Z,4.40
2019-03-13T04:45:18.260Z,4.40
2019-03-13T04:47:47.351Z,4.40
2019-03-13T04:50:16.959Z,4.40
2019-03-13T04:52:45.895Z,4.40
2019-03-13T04:55:16.494Z,4.40
2019-03-13T04:57:45.273Z,4.50
2019-03-13T05:00:19.288Z,4.50
2019-03-13T05:02:48.003Z,4.50
2019-03-13T05:05:37.854Z,4.50
2019-03-13T05:08:06.951Z,4.50
2019-03-13T05:10:36.058Z,4.60
2019-03-13T05:13:04.849Z,4.60
2019-03-13T05:15:33.966Z,4.60
2019-03-13T05:18:02.671Z,4.60
2019-03-13T05:20:31.374Z,4.60
2019-03-13T05:23:00.123Z,4.60
2019-03-13T05:25:29.194Z,4.60
2019-03-13T05:27:58.384Z,4.60
2019-03-13T05:30:27.105Z,4.60
2019-03-13T05:32:55.971Z,4.60
2019-03-13T05:35:25.060Z,4.50
2019-03-13T05:37:54.159Z,4.50
2019-03-13T05:40:22.899Z,4.50
2019-03-13T05:42:51.940Z,4.50
2019-03-13T05:45:20.712Z,4.50
2019-03-13T05:47:49.928Z,4.50
2019-03-13T05:50:18.812Z,4.50
2019-03-13T05:52:47.529Z,4.50
2019-03-13T05:55:16.708Z,4.60
2019-03-13T05:57:45.804Z,4.70
2019-03-13T06:00:16.664Z,4.60
2019-03-13T06:02:47.665Z,4.60
2019-03-13T06:05:16.064Z,4.60
2019-03-13T06:07:45.148Z,4.60
2019-03-13T06:10:17.217Z,4.50
2019-03-13T06:12:45.936Z,4.50
2019-03-13T06:15:15.466Z,4.50
2019-03-13T06:17:44.247Z,4.50
2019-03-13T06:20:17.716Z,4.50
2019-03-13T06:22:46.904Z,4.50
2019-03-13T06:25:16.000Z,4.50
2019-03-13T06:27:46.382Z,4.50
2019-03-13T06:30:21.050Z,4.40
2019-03-13T06:32:50.145Z,4.40
2019-03-13T06:35:18.917Z,4.30
2019-03-13T06:37:47.696Z,4.30
2019-03-13T06:40:22.146Z,4.30
2019-03-13T06:42:51.441Z,4.30
2019-03-13T06:45:23.197Z,4.30
2019-03-13T06:47:50.671Z,4.30
2019-03-13T06:50:24.465Z,4.30
2019-03-13T06:52:53.552Z,4.40
2019-03-13T06:55:22.565Z,4.40
2019-03-13T06:57:51.319Z,4.50
2019-03-13T07:00:42.238Z,4.60
2019-03-13T07:03:18.734Z,4.60
2019-03-13T07:05:54.881Z,4.70
2019-03-13T07:08:41.646Z,4.80
2019-03-13T07:11:18.099Z,4.90
2019-03-13T07:13:48.896Z,4.90
2019-03-13T07:16:22.286Z,5.00
2019-03-13T07:18:51.792Z,5.00
2019-03-13T07:21:34.119Z,5.10
2019-03-13T07:24:04.475Z,5.10
2019-03-13T07:26:38.036Z,5.20
2019-03-13T07:29:12.427Z,5.20
2019-03-13T07:31:46.134Z,5.30
2019-03-13T07:34:18.955Z,5.30
2019-03-13T07:37:06.165Z,5.30
2019-03-13T07:39:39.867Z,5.30
2019-03-13T07:42:19.079Z,5.40
2019-03-13T07:45:02.022Z,5.30
2019-03-13T07:47:35.130Z,5.30
2019-03-13T07:50:07.065Z,5.30
2019-03-13T07:52:37.412Z,5.40
2019-03-13T07:55:18.776Z,5.90
2019-03-13T07:57:55.363Z,6.40
2019-03-13T08:00:37.975Z,6.90
2019-03-13T08:03:19.892Z,7.30
2019-03-13T08:05:50.276Z,7.40
2019-03-13T08:08:38.939Z,7.40
2019-03-13T08:11:16.017Z,7.00
2019-03-13T08:13:55.963Z,6.80
2019-03-13T08:16:29.359Z,6.60
2019-03-13T08:19:08.039Z,6.50
2019-03-13T08:21:41.151Z,6.30
2019-03-13T08:24:28.402Z,6.10
2019-03-13T08:26:58.788Z,6.00
2019-03-13T08:29:34.838Z,5.80
2019-03-13T08:32:17.704Z,5.70
2019-03-13T08:34:48.085Z,5.70
2019-03-13T08:37:21.495Z,5.60
2019-03-13T08:40:00.956Z,5.70
2019-03-13T08:42:40.719Z,5.90
2019-03-13T08:45:13.875Z,6.20
2019-03-13T08:48:00.919Z,6.50
2019-03-13T08:50:31.659Z,6.50
2019-03-13T08:53:02.390Z,6.50
2019-03-13T08:55:32.776Z,6.50
2019-03-13T08:58:03.458Z,6.40
2019-03-13T09:00:33.940Z,6.20
2019-03-13T09:03:06.718Z,6.20
2019-03-13T09:05:37.116Z,6.10
2019-03-13T09:08:07.471Z,5.90
2019-03-13T09:10:37.818Z,5.90
2019-03-13T09:13:14.195Z,5.90
2019-03-13T09:15:44.550Z,5.90
2019-03-13T09:18:26.933Z,6.20
2019-03-13T09:21:00.391Z,7.20
2019-03-13T09:23:37.418Z,8.10
2019-03-13T09:26:11.115Z,8.80
2019-03-13T09:28:41.475Z,9.60
2019-03-13T09:31:20.586Z,10.00
2019-03-13T09:33:56.924Z,10.40
2019-03-13T09:36:36.453Z,11.00
2019-03-13T09:39:07.928Z,11.10
2019-03-13T09:41:56.507Z,11.50
2019-03-13T09:44:27.225Z,11.70
2019-03-13T09:47:04.101Z,11.90
2019-03-13T09:49:43.659Z,12.10
2019-03-13T09:52:30.571Z,12.10
2019-03-13T09:55:16.839Z,12.30
2019-03-13T09:57:53.552Z,12.40
2019-03-13T10:00:40.447Z,12.70
2019-03-13T10:03:11.181Z,12.80
2019-03-13T10:05:53.461Z,13.30
2019-03-13T10:08:24.211Z,13.50
2019-03-13T10:11:13.175Z,13.50
2019-03-13T10:13:59.781Z,12.40
2019-03-13T10:16:30.142Z,12.30
2019-03-13T10:19:01.801Z,12.50
2019-03-13T10:21:38.134Z,12.00
2019-03-13T10:24:08.501Z,12.00
2019-03-13T10:26:41.970Z,12.30
2019-03-13T10:29:15.154Z,12.40
2019-03-13T10:31:48.054Z,12.80
2019-03-13T10:34:30.711Z,12.90
2019-03-13T10:37:07.067Z,12.90
2019-03-13T10:39:53.609Z,12.70
2019-03-13T10:42:23.960Z,13.10
2019-03-13T10:45:09.927Z,12.90
2019-03-13T10:47:52.568Z,13.40
2019-03-13T10:50:31.712Z,13.30
2019-03-13T10:53:02.071Z,13.00
2019-03-13T10:55:38.784Z,12.90
2019-03-13T10:58:25.688Z,13.20
2019-03-13T11:01:14.534Z,13.60
2019-03-13T11:04:01.477Z,13.30
2019-03-13T11:06:32.198Z,14.00
2019-03-13T11:09:02.942Z,14.50
2019-03-13T11:11:33.664Z,14.20
2019-03-13T11:14:15.609Z,13.90
2019-03-13T11:16:55.191Z,14.30
2019-03-13T11:19:28.674Z,14.20
2019-03-13T11:22:01.774Z,14.40
2019-03-13T11:24:31.286Z,14.60
2019-03-13T11:27:07.712Z,14.70
2019-03-13T11:29:44.443Z,14.80
2019-03-13T11:32:20.648Z,15.20
2019-03-13T11:34:51.350Z,15.20
2019-03-13T11:37:21.704Z,15.40
2019-03-13T11:39:58.435Z,15.40
2019-03-13T11:42:45.555Z,15.50
2019-03-13T11:45:28.076Z,15.20
2019-03-13T11:48:01.436Z,14.60
2019-03-13T11:50:34.913Z,14.70
2019-03-13T11:53:08.260Z,14.90
2019-03-13T11:55:45.045Z,14.80
2019-03-13T11:58:18.914Z,15.20
2019-03-13T12:01:05.958Z,15.50
2019-03-13T12:03:48.553Z,15.20
2019-03-13T12:06:34.368Z,15.30
2019-03-13T12:09:10.436Z,15.30
2019-03-13T12:11:41.160Z,15.30
2019-03-13T12:14:20.600Z,15.40
2019-03-13T12:16:57.071Z,15.70
2019-03-13T12:19:45.692Z,15.20
2019-03-13T12:22:16.451Z,15.10
2019-03-13T12:24:47.183Z,15.40
2019-03-13T12:27:20.888Z,15.40
2019-03-13T12:30:06.779Z,14.90
2019-03-13T12:32:43.106Z,14.40
2019-03-13T12:35:31.676Z,13.80
2019-03-13T12:38:18.423Z,13.60
2019-03-13T12:41:04.762Z,13.90
2019-03-13T12:43:35.162Z,14.10
2019-03-13T12:46:08.637Z,14.00
2019-03-13T12:48:45.107Z,14.10
2019-03-13T12:51:21.581Z,13.90
2019-03-13T12:54:01.418Z,14.30
2019-03-13T12:56:32.159Z,14.70
2019-03-13T12:59:11.599Z,15.10
2019-03-13T13:01:42.963Z,15.30
2019-03-13T13:04:25.665Z,15.70
2019-03-13T13:07:02.537Z,15.70
2019-03-13T13:09:49.660Z,15.80
2019-03-13T13:12:26.130Z,15.70
2019-03-13T13:14:59.255Z,15.40
2019-03-13T13:17:45.336Z,15.70
2019-03-13T13:20:14.803Z,15.70
2019-03-13T13:22:43.913Z,15.40
2019-03-13T13:25:12.701Z,15.10
2019-03-13T13:27:41.800Z,15.20
2019-03-13T13:30:14.072Z,15.00
2019-03-13T13:32:43.165Z,14.80
2019-03-13T13:35:12.470Z,15.20
2019-03-13T13:37:41.564Z,14.90
2019-03-13T13:40:16.170Z,14.70
2019-03-13T13:42:45.004Z,14.70
2019-03-13T13:45:35.060Z,14.80
2019-03-13T13:48:03.783Z,14.80
2019-03-13T13:50:32.852Z,15.10
2019-03-13T13:53:01.623Z,15.60
2019-03-13T13:55:30.347Z,15.60
2019-03-13T13:57:59.422Z,15.90
2019-03-13T14:00:28.613Z,15.80
2019-03-13T14:02:57.395Z,15.60
2019-03-13T14:05:26.504Z,15.10
2019-03-13T14:07:55.331Z,15.30
2019-03-13T14:10:24.121Z,15.40
2019-03-13T14:12:52.840Z,15.20
2019-03-13T14:15:21.968Z,15.10
2019-03-13T14:17:50.675Z,15.10
2019-03-13T14:20:19.750Z,15.00
2019-03-13T14:22:48.497Z,15.00
2019-03-13T14:25:17.212Z,15.10
2019-03-13T14:27:45.997Z,15.00
2019-03-13T14:30:20.322Z,14.80
2019-03-13T14:32:49.436Z,14.30
2019-03-13T14:35:18.252Z,14.50
2019-03-13T14:37:47.406Z,14.50
2019-03-13T14:40:19.066Z,14.50
2019-03-13T14:42:47.891Z,15.00
2019-03-13T14:45:18.779Z,14.60
2019-03-13T14:47:47.888Z,14.50
2019-03-13T14:50:22.113Z,14.50
2019-03-13T14:52:50.996Z,14.30
2019-03-13T14:55:20.204Z,14.50
2019-03-13T14:57:49.292Z,14.50
2019-03-13T15:00:25.660Z,14.60
2019-03-13T15:02:54.764Z,14.20
2019-03-13T15:05:23.487Z,14.50
2019-03-13T15:07:52.544Z,14.50
2019-03-13T15:10:22.661Z,14.00
2019-03-13T15:12:51.760Z,13.80
2019-03-13T15:15:24.650Z,14.10
2019-03-13T15:17:53.725Z,14.10
2019-03-13T15:20:27.743Z,13.80
2019-03-13T15:22:56.949Z,13.60
2019-03-13T15:25:25.752Z,13.00
2019-03-13T15:27:54.832Z,12.70
2019-03-13T15:30:28.030Z,12.60
2019-03-13T15:32:56.242Z,12.30
2019-03-13T15:35:25.048Z,12.20
2019-03-13T15:37:54.078Z,12.40
2019-03-13T15:40:22.895Z,12.40
2019-03-13T15:42:51.678Z,12.30
2019-03-13T15:45:26.087Z,12.60
2019-03-13T15:47:54.917Z,12.50
2019-03-13T15:50:23.706Z,12.40
2019-03-13T15:52:52.862Z,12.20
2019-03-13T15:55:22.056Z,11.80
2019-03-13T15:57:50.864Z,11.60
2019-03-13T16:00:28.012Z,11.40
2019-03-13T16:02:57.129Z,11.10
2019-03-13T16:05:26.225Z,10.90
2019-03-13T16:07:55.038Z,10.70
2019-03-13T16:10:23.747Z,10.50
2019-03-13T16:12:54.962Z,10.40
2019-03-13T16:15:32.646Z,10.40
2019-03-13T16:18:01.839Z,10.40
2019-03-13T16:20:30.927Z,10.20
2019-03-13T16:23:01.467Z,10.20
2019-03-13T16:25:30.400Z,10.10
2019-03-13T16:27:59.387Z,10.10
2019-03-13T16:30:33.999Z,9.80
2019-03-13T16:33:03.297Z,9.60
2019-03-13T16:35:32.167Z,9.40
2019-03-13T16:38:01.165Z,9.30
2019-03-13T16:40:31.876Z,9.30
2019-03-13T16:43:00.686Z,9.20
2019-03-13T16:45:29.782Z,9.00
2019-03-13T16:47:58.984Z,8.90
2019-03-13T16:50:38.527Z,8.80
2019-03-13T16:53:07.276Z,8.70
2019-03-13T16:55:36.060Z,8.70
2019-03-13T16:58:05.297Z,8.70
2019-03-13T17:00:34.815Z,8.60
2019-03-13T17:03:03.898Z,8.60
2019-03-13T17:05:32.689Z,8.50
2019-03-13T17:08:01.792Z,8.40
2019-03-13T17:10:30.576Z,8.50
2019-03-13T17:12:59.396Z,8.50
2019-03-13T17:15:28.977Z,8.50
2019-03-13T17:17:57.766Z,8.50
2019-03-13T17:20:32.343Z,8.50
2019-03-13T17:23:01.486Z,8.50
2019-03-13T17:25:30.576Z,8.40
2019-03-13T17:27:59.324Z,8.40
2019-03-13T17:30:32.769Z,8.40
2019-03-13T17:33:01.985Z,8.30
2019-03-13T17:35:30.810Z,8.30
2019-03-13T17:37:59.954Z,8.20
2019-03-13T17:40:30.729Z,8.10
2019-03-13T17:42:59.542Z,8.00
2019-03-13T17:45:28.778Z,7.80
2019-03-13T17:47:57.862Z,7.80
2019-03-13T17:50:26.696Z,7.70
2019-03-13T17:52:55.474Z,7.60
2019-03-13T17:55:25.235Z,7.50
2019-03-13T17:57:54.364Z,7.50
2019-03-13T18:00:42.508Z,7.50
2019-03-13T18:03:11.704Z,7.50
2019-03-13T18:05:40.899Z,7.50
2019-03-13T18:08:09.609Z,7.50
2019-03-13T18:10:38.415Z,7.50
2019-03-13T18:13:07.576Z,7.40
2019-03-13T18:15:36.371Z,7.50
2019-03-13T18:18:05.114Z,7.40
2019-03-13T18:20:34.140Z,7.50
2019-03-13T18:23:03.239Z,7.40
2019-03-13T18:25:32.843Z,7.30
2019-03-13T18:28:01.667Z,7.30
2019-03-13T18:30:32.066Z,7.20
2019-03-13T18:33:00.801Z,7.20
2019-03-13T18:35:29.946Z,7.10
2019-03-13T18:37:59.037Z,7.20
2019-03-13T18:40:28.277Z,7.10
2019-03-13T18:42:57.342Z,7.10
2019-03-13T18:45:32.264Z,7.10
2019-03-13T18:48:01.372Z,7.00
2019-03-13T18:50:30.227Z,7.10
2019-03-13T18:52:59.354Z,7.00
2019-03-13T18:55:34.173Z,7.00
2019-03-13T18:58:03.383Z,7.00
2019-03-13T19:00:36.365Z,7.00
2019-03-13T19:03:07.421Z,6.90
2019-03-13T19:05:38.022Z,6.90
2019-03-13T19:08:07.759Z,6.90
2019-03-13T19:10:36.589Z,6.90
2019-03-13T19:13:05.585Z,6.90
2019-03-13T19:15:34.350Z,7.00
2019-03-13T19:18:03.537Z,6.90
2019-03-13T19:20:32.427Z,7.00
2019-03-13T19:23:01.614Z,6.90
2019-03-13T19:25:30.387Z,6.90
2019-03-13T19:27:59.183Z,6.90
2019-03-13T19:30:32.795Z,6.90
2019-03-13T19:33:01.573Z,6.90
2019-03-13T19:35:30.577Z,6.80
2019-03-13T19:38:05.709Z,6.90
2019-03-13T19:40:35.013Z,6.90
2019-03-13T19:43:04.100Z,6.90
2019-03-13T19:45:38.839Z,6.80
2019-03-13T19:48:07.936Z,6.90
2019-03-13T19:50:37.127Z,6.80
2019-03-13T19:53:06.171Z,6.90
2019-03-13T19:55:35.534Z,6.90
2019-03-13T19:58:07.857Z,6.80
2019-03-13T20:00:36.623Z,6.90
2019-03-13T20:03:11.670Z,6.90
2019-03-13T20:05:45.804Z,6.90
2019-03-13T20:08:13.452Z,6.80
2019-03-13T20:10:41.572Z,6.80
2019-03-13T20:13:10.359Z,6.70
2019-03-13T20:15:39.142Z,6.70
2019-03-13T20:18:08.248Z,6.60
2019-03-13T20:20:37.040Z,6.70
2019-03-13T20:23:08.081Z,6.70
2019-03-13T20:25:37.180Z,6.60
2019-03-13T20:28:06.328Z,6.70
2019-03-13T20:30:35.074Z,6.60
2019-03-13T20:33:04.154Z,6.60
2019-03-13T20:35:36.572Z,6.60
2019-03-13T20:38:04.289Z,6.60
2019-03-13T20:40:33.388Z,6.50
2019-03-13T20:43:02.809Z,6.60
2019-03-13T20:45:31.886Z,6.50
2019-03-13T20:48:01.088Z,6.50
2019-03-13T20:50:36.699Z,6.50
2019-03-13T20:53:00.163Z,6.50
2019-03-13T20:55:29.288Z,6.50
2019-03-13T20:57:58.393Z,6.50
2019-03-13T21:00:28.625Z,6.60
2019-03-13T21:02:58.433Z,6.60
2019-03-13T21:05:28.444Z,6.60
2019-03-13T21:07:57.531Z,6.60
2019-03-13T21:10:26.741Z,6.60
2019-03-13T21:12:55.464Z,6.60
2019-03-13T21:15:28.612Z,6.50
2019-03-13T21:17:57.364Z,6.60
2019-03-13T21:20:26.913Z,6.50
2019-03-13T21:22:58.214Z,6.50
2019-03-13T21:25:27.173Z,6.50
2019-03-13T21:27:56.356Z,6.50
2019-03-13T21:30:30.256Z,6.50
2019-03-13T21:32:59.046Z,6.50
2019-03-13T21:35:27.820Z,6.40
2019-03-13T21:37:56.695Z,6.40
2019-03-13T21:40:26.547Z,6.30
2019-03-13T21:42:55.810Z,6.40
2019-03-13T21:45:24.790Z,6.40
2019-03-13T21:47:53.843Z,6.30
2019-03-13T21:50:22.945Z,6.30
2019-03-13T21:52:51.791Z,6.30
2019-03-13T21:55:20.909Z,6.30
2019-03-13T21:57:51.997Z,6.40
2019-03-13T22:00:22.543Z,6.30
2019-03-13T22:02:51.251Z,6.30
2019-03-13T22:05:25.493Z,6.30
2019-03-13T22:07:51.351Z,6.30
2019-03-13T22:10:21.226Z,6.30
2019-03-13T22:12:50.433Z,6.20
2019-03-13T22:15:20.862Z,6.20
2019-03-13T22:17:50.054Z,6.20
2019-03-13T22:20:19.955Z,6.10
2019-03-13T22:22:49.064Z,6.10
2019-03-13T22:25:19.593Z,6.00
2019-03-13T22:27:48.795Z,6.00
2019-03-13T22:30:22.358Z,5.90
2019-03-13T22:32:51.107Z,5.90
2019-03-13T22:35:20.172Z,5.90
2019-03-13T22:37:49.861Z,5.80
2019-03-13T22:40:19.602Z,5.80
2019-03-13T22:42:48.683Z,5.80
2019-03-13T22:45:19.221Z,5.80
2019-03-13T22:47:48.065Z,5.80
2019-03-13T22:50:21.054Z,5.70
2019-03-13T22:52:49.761Z,5.70
2019-03-13T22:55:18.517Z,5.70
2019-03-13T22:57:47.569Z,5.60
2019-03-13T23:00:52.640Z,5.60
2019-03-13T23:03:23.214Z,5.60
2019-03-13T23:05:52.036Z,5.60
2019-03-13T23:08:21.205Z,5.60
2019-03-13T23:10:50.215Z,5.50
2019-03-13T23:13:19.313Z,5.50
2019-03-13T23:15:48.055Z,5.60
2019-03-13T23:18:18.466Z,5.50
2019-03-13T23:20:47.942Z,5.50
2019-03-13T23:23:17.132Z,5.50
2019-03-13T23:25:45.910Z,5.50
2019-03-13T23:28:14.700Z,5.60
2019-03-13T23:30:43.810Z,5.60
2019-03-13T23:33:12.906Z,5.60
2019-03-13T23:35:41.639Z,5.60
2019-03-13T23:38:10.683Z,5.60
2019-03-13T23:40:39.513Z,5.60
2019-03-13T23:43:08.664Z,5.60
2019-03-13T23:45:37.659Z,5.60
2019-03-13T23:48:06.757Z,5.60
2019-03-13T23:50:35.953Z,5.70
2019-03-13T23:53:05.047Z,5.70
2019-03-13T23:55:33.831Z,5.70
2019-03-13T23:58:02.757Z,5.70
